Time;durP1;ratioP1;P1;durP2;ratioP2;P2;SDS_P1;SDS_P2;PMS_P1;PMS_P2;Temp;Humidity;BMP_temperature;BMP_pressure;BME280_temperature;BME280_humidity;BME280_pressure;Samples;Min_cycle;Max_cycle;Signal;HPM_P1;HPM_P2
2023/12/10 00:00:21;;;;;;;17.25;5.90;;;12.80;69.60;;;;;;5059702;28;20406;-47
2023/12/10 00:02:50;;;;;;;21.27;5.80;;;12.80;69.60;;;;;;5050825;28;20095;-48
2023/12/10 00:05:17;;;;;;;21.60;5.38;;;12.80;69.30;;;;;;5049404;28;20041;-50
2023/12/10 00:07:44;;;;;;;17.75;5.85;;;12.90;69.40;;;;;;5057309;28;20116;-50
2023/12/10 00:10:10;;;;;;;19.35;5.20;;;12.80;69.20;;;;;;5057912;28;20120;-50
2023/12/10 00:12:40;;;;;;;23.58;5.20;;;12.80;69.10;;;;;;5031195;28;20106;-49
2023/12/10 00:15:07;;;;;;;16.77;5.60;;;12.80;68.90;;;;;;5058666;28;20083;-52
2023/12/10 00:17:35;;;;;;;18.00;6.43;;;12.80;68.90;;;;;;5058641;28;20102;-50
2023/12/10 00:20:01;;;;;;;19.02;4.95;;;12.80;69.00;;;;;;5053368;28;20041;-47
2023/12/10 00:22:28;;;;;;;27.45;5.47;;;12.80;68.90;;;;;;5055015;28;20078;-55
2023/12/10 00:24:55;;;;;;;16.98;4.82;;;12.80;69.00;;;;;;5054253;28;20119;-52
2023/12/10 00:27:22;;;;;;;19.02;6.13;;;12.80;68.90;;;;;;5064069;28;20045;-51
2023/12/10 00:29:49;;;;;;;15.55;5.28;;;12.80;68.70;;;;;;5061241;28;20523;-48
2023/12/10 00:32:15;;;;;;;24.77;4.88;;;12.80;68.80;;;;;;5058512;28;20511;-51
2023/12/10 00:34:42;;;;;;;19.77;4.90;;;12.80;68.70;;;;;;5056091;28;20056;-48
2023/12/10 00:37:12;;;;;;;17.10;5.13;;;12.80;68.70;;;;;;5063754;28;20070;-48
2023/12/10 00:39:39;;;;;;;21.77;5.78;;;12.90;68.60;;;;;;5062149;28;20048;-47
2023/12/10 00:42:06;;;;;;;16.83;5.45;;;12.90;68.50;;;;;;5052966;28;20037;-49
2023/12/10 00:44:33;;;;;;;22.30;5.78;;;12.90;68.40;;;;;;5061079;28;20069;-49
2023/12/10 00:46:59;;;;;;;22.05;6.00;;;12.90;68.10;;;;;;5061955;28;20467;-52
2023/12/10 00:49:26;;;;;;;16.80;4.63;;;12.90;68.20;;;;;;5061996;28;20098;-52
2023/12/10 00:51:53;;;;;;;12.45;4.43;;;12.90;68.10;;;;;;5054931;28;20044;-49
2023/12/10 00:54:20;;;;;;;14.30;4.53;;;12.90;68.10;;;;;;5049287;28;20059;-52
2023/12/10 00:56:47;;;;;;;24.63;6.13;;;13.00;67.90;;;;;;5060253;28;20051;-51
2023/12/10 00:59:14;;;;;;;18.30;5.70;;;12.90;67.80;;;;;;5064700;28;20457;-48
2023/12/10 01:01:42;;;;;;;18.08;5.90;;;12.90;67.80;;;;;;5062282;28;20048;-48
2023/12/10 01:04:10;;;;;;;23.17;5.63;;;13.00;67.80;;;;;;5056642;28;20105;-46
2023/12/10 01:06:37;;;;;;;21.02;5.70;;;13.00;67.70;;;;;;5061469;28;20041;-52
2023/12/10 01:09:04;;;;;;;18.35;5.45;;;13.00;67.60;;;;;;5060751;28;20100;-52
2023/12/10 01:11:31;;;;;;;12.18;5.22;;;13.00;67.50;;;;;;5063817;28;20094;-47
2023/12/10 01:13:58;;;;;;;12.73;5.07;;;13.00;67.40;;;;;;5050815;28;20491;-47
2023/12/10 01:16:27;;;;;;;20.70;7.05;;;13.00;67.30;;;;;;5062930;28;20094;-52
2023/12/10 01:18:54;;;;;;;15.27;5.65;;;13.00;67.30;;;;;;5059151;28;20099;-48
2023/12/10 01:21:23;;;;;;;18.85;5.43;;;13.00;67.20;;;;;;5053283;28;20044;-47
2023/12/10 01:23:54;;;;;;;19.85;4.82;;;13.10;67.20;;;;;;5053520;28;20060;-49
2023/12/10 01:26:21;;;;;;;17.85;5.45;;;13.00;67.10;;;;;;5044694;28;20051;-51
2023/12/10 01:28:51;;;;;;;15.75;5.18;;;13.00;67.00;;;;;;5062486;28;20565;-49
2023/12/10 01:31:17;;;;;;;14.00;4.13;;;13.10;67.00;;;;;;5054089;28;20037;-52
2023/12/10 01:33:44;;;;;;;14.13;4.32;;;13.00;67.00;;;;;;5049613;28;20175;-49
2023/12/10 01:36:22;;;;;;;11.15;4.43;;;13.00;66.80;;;;;;5059249;28;20117;-49
2023/12/10 01:38:50;;;;;;;20.45;5.45;;;13.00;65.90;;;;;;5062203;28;20045;-46
2023/12/10 01:41:18;;;;;;;13.35;4.53;;;13.00;66.50;;;;;;5048245;28;20041;-49
2023/12/10 01:43:45;;;;;;;11.68;4.45;;;13.10;66.40;;;;;;5059162;28;20052;-46
2023/12/10 01:46:12;;;;;;;17.42;5.13;;;13.00;66.40;;;;;;5065214;28;20045;-48
2023/12/10 01:48:41;;;;;;;14.38;4.72;;;13.00;66.30;;;;;;5063776;28;20048;-50
2023/12/10 01:51:09;;;;;;;13.48;4.57;;;13.00;66.30;;;;;;5057007;28;20063;-47
2023/12/10 01:53:38;;;;;;;17.20;5.00;;;13.00;66.30;;;;;;5057606;28;20057;-47
2023/12/10 01:56:06;;;;;;;16.35;4.20;;;13.10;66.20;;;;;;5058786;28;20499;-45
2023/12/10 01:58:35;;;;;;;12.40;3.88;;;13.00;66.10;;;;;;5064624;28;20040;-47
2023/12/10 02:01:07;;;;;;;14.82;4.57;;;13.00;66.00;;;;;;5064229;28;20095;-48
2023/12/10 02:03:35;;;;;;;16.38;4.35;;;13.00;65.70;;;;;;5035514;28;20041;-48
2023/12/10 02:06:04;;;;;;;15.07;3.80;;;13.00;65.70;;;;;;5060680;28;20044;-47
2023/12/10 02:08:31;;;;;;;16.00;4.22;;;13.00;65.50;;;;;;5061507;28;20045;-48
2023/12/10 02:10:59;;;;;;;19.85;4.57;;;13.00;65.70;;;;;;5059932;28;20070;-48
2023/12/10 02:13:26;;;;;;;15.43;4.22;;;13.00;65.50;;;;;;5054416;28;20448;-48
2023/12/10 02:15:53;;;;;;;10.82;3.85;;;13.00;65.60;;;;;;5059413;28;20037;-48
2023/12/10 02:18:20;;;;;;;18.48;4.47;;;13.00;65.40;;;;;;5065362;28;20070;-47
2023/12/10 02:20:50;;;;;;;13.05;3.45;;;13.00;65.00;;;;;;5063161;28;20060;-47
2023/12/10 02:23:40;;;;;;;13.15;4.90;;;13.00;65.10;;;;;;5043927;28;20048;-47
2023/12/10 02:26:07;;;;;;;17.10;4.07;;;13.00;64.30;;;;;;5059624;28;20098;-47
2023/12/10 02:28:33;;;;;;;16.25;4.47;;;13.00;64.80;;;;;;5065138;28;20041;-48
2023/12/10 02:31:00;;;;;;;12.50;4.72;;;13.00;64.60;;;;;;5060457;28;20048;-48
2023/12/10 02:33:27;;;;;;;9.20;3.72;;;13.00;64.50;;;;;;5057701;28;20113;-48
2023/12/10 02:35:55;;;;;;;14.25;3.30;;;13.00;64.40;;;;;;5062810;28;20099;-48
2023/12/10 02:38:21;;;;;;;11.82;4.65;;;13.00;64.20;;;;;;5065403;28;20074;-46
2023/12/10 02:40:49;;;;;;;13.18;4.32;;;13.00;64.20;;;;;;5052552;28;20037;-48
2023/12/10 02:43:17;;;;;;;18.20;4.85;;;13.00;64.20;;;;;;5038953;28;20089;-48
2023/12/10 02:45:44;;;;;;;13.30;3.20;;;13.00;64.30;;;;;;5062777;28;20040;-48
2023/12/10 02:48:12;;;;;;;18.85;4.05;;;13.00;64.40;;;;;;5064623;28;20450;-48
2023/12/10 02:50:39;;;;;;;35.63;4.00;;;13.00;64.30;;;;;;5052339;28;20044;-50
2023/12/10 02:53:08;;;;;;;10.10;3.30;;;12.90;64.20;;;;;;5063932;28;20041;-47
2023/12/10 02:55:35;;;;;;;16.65;3.85;;;12.90;64.70;;;;;;5050117;28;20049;-50
2023/12/10 02:58:02;;;;;;;9.50;3.30;;;12.80;64.60;;;;;;5064306;28;20079;-47
2023/12/10 03:00:32;;;;;;;11.00;3.53;;;12.70;64.90;;;;;;5066181;28;20498;-49
2023/12/10 03:02:59;;;;;;;12.77;3.10;;;12.70;65.10;;;;;;5051372;28;20067;-47
2023/12/10 03:05:26;;;;;;;15.02;3.60;;;12.60;65.10;;;;;;5061998;28;20042;-47
2023/12/10 03:07:53;;;;;;;15.30;4.18;;;12.50;65.40;;;;;;5046572;28;20055;-49
2023/12/10 03:10:20;;;;;;;8.77;2.85;;;12.50;65.80;;;;;;5061346;28;20109;-45
2023/12/10 03:12:47;;;;;;;12.02;4.25;;;12.40;66.00;;;;;;5044258;28;20087;-46
2023/12/10 03:15:14;;;;;;;11.63;3.85;;;12.30;66.00;;;;;;5065826;28;20052;-50
2023/12/10 03:17:42;;;;;;;13.13;4.47;;;12.30;66.40;;;;;;5064914;28;20052;-47
2023/12/10 03:20:12;;;;;;;15.40;3.38;;;12.30;66.40;;;;;;5046526;28;20037;-49
2023/12/10 03:22:39;;;;;;;13.60;3.33;;;12.20;66.60;;;;;;5062870;28;20124;-47
2023/12/10 03:25:06;;;;;;;10.40;3.50;;;12.20;66.60;;;;;;5052662;28;20083;-52
2023/12/10 03:27:34;;;;;;;12.25;4.15;;;12.10;66.50;;;;;;5063337;28;20032;-50
2023/12/10 03:30:02;;;;;;;11.43;3.47;;;12.10;66.70;;;;;;5046831;28;20566;-52
2023/12/10 03:32:28;;;;;;;14.10;3.65;;;12.10;67.60;;;;;;5054115;28;20461;-48
2023/12/10 03:34:58;;;;;;;13.05;3.72;;;12.10;67.30;;;;;;5059403;28;20048;-50
2023/12/10 03:37:25;;;;;;;14.77;3.80;;;12.10;67.40;;;;;;5066761;28;20079;-47
2023/12/10 03:39:53;;;;;;;13.10;4.25;;;12.00;67.60;;;;;;5065001;28;20392;-47
2023/12/10 03:42:20;;;;;;;14.00;4.10;;;12.00;67.70;;;;;;5057976;28;20040;-48
2023/12/10 03:44:49;;;;;;;13.98;4.18;;;12.10;67.90;;;;;;5064797;28;20052;-47
2023/12/10 03:47:16;;;;;;;13.60;4.38;;;12.00;67.90;;;;;;5052375;28;20579;-48
2023/12/10 03:49:43;;;;;;;9.63;3.17;;;12.00;68.10;;;;;;5066521;28;20048;-52
2023/12/10 03:52:10;;;;;;;12.10;4.03;;;11.90;68.20;;;;;;5056519;28;20064;-47
2023/12/10 03:54:37;;;;;;;13.57;3.95;;;11.90;68.30;;;;;;5054951;28;20171;-47
2023/12/10 03:57:06;;;;;;;19.45;4.82;;;11.90;68.30;;;;;;5061345;28;20125;-47
2023/12/10 03:59:35;;;;;;;9.40;3.85;;;11.90;68.50;;;;;;5069669;28;20036;-48
2023/12/10 04:02:04;;;;;;;17.15;4.53;;;11.90;68.50;;;;;;5070049;28;20565;-51
2023/12/10 04:04:31;;;;;;;14.65;4.60;;;11.90;68.70;;;;;;5058853;28;20044;-49
2023/12/10 04:07:01;;;;;;;13.23;4.07;;;11.90;68.50;;;;;;5068067;28;20129;-48
2023/12/10 04:09:27;;;;;;;12.77;3.95;;;11.90;68.40;;;;;;5065324;28;20106;-50
2023/12/10 04:11:59;;;;;;;16.38;4.60;;;11.90;68.10;;;;;;5052831;28;20046;-50
2023/12/10 04:14:26;;;;;;;18.73;4.65;;;11.90;67.90;;;;;;5061852;28;20106;-52
2023/12/10 04:16:53;;;;;;;19.67;5.10;;;11.90;67.90;;;;;;5069533;28;20079;-46
2023/12/10 04:19:20;;;;;;;12.27;4.13;;;11.90;67.90;;;;;;5061049;28;20091;-48
2023/12/10 04:21:47;;;;;;;12.70;3.30;;;12.00;67.80;;;;;;5063541;28;20520;-50
2023/12/10 04:24:15;;;;;;;13.35;3.25;;;12.00;67.60;;;;;;5062463;28;20530;-50
2023/12/10 04:26:43;;;;;;;13.65;3.60;;;12.10;67.50;;;;;;5058903;28;20040;-48
2023/12/10 04:29:10;;;;;;;15.65;3.42;;;12.10;67.20;;;;;;5069944;28;20045;-48
2023/12/10 04:31:37;;;;;;;12.65;3.03;;;12.10;67.00;;;;;;5071387;28;20048;-47
2023/12/10 04:34:06;;;;;;;11.20;3.45;;;12.10;67.00;;;;;;5056410;28;20038;-48
2023/12/10 04:36:33;;;;;;;14.27;4.03;;;12.20;66.80;;;;;;5058405;28;20044;-47
2023/12/10 04:39:04;;;;;;;14.70;4.40;;;12.20;66.70;;;;;;5070329;28;20064;-47
2023/12/10 04:41:35;;;;;;;15.38;3.83;;;12.30;66.30;;;;;;5071617;28;20560;-48
2023/12/10 04:44:02;;;;;;;10.85;3.20;;;12.30;66.10;;;;;;5057475;28;20036;-48
2023/12/10 04:46:29;;;;;;;7.60;3.45;;;12.30;66.20;;;;;;5066754;28;20064;-49
2023/12/10 04:48:56;;;;;;;12.27;3.22;;;12.30;66.00;;;;;;5070491;28;20040;-47
2023/12/10 04:51:24;;;;;;;15.65;3.72;;;12.40;65.90;;;;;;5067381;28;20048;-47
2023/12/10 04:53:51;;;;;;;14.77;3.75;;;12.30;65.70;;;;;;5052027;28;20074;-49
2023/12/10 04:56:17;;;;;;;12.23;3.70;;;12.40;65.70;;;;;;5062633;28;20048;-51
2023/12/10 04:58:47;;;;;;;10.35;4.40;;;12.40;65.60;;;;;;5053539;28;20083;-50
2023/12/10 05:01:16;;;;;;;10.82;3.13;;;12.40;65.30;;;;;;5071662;28;20439;-46
2023/12/10 05:03:43;;;;;;;10.57;3.92;;;12.50;65.30;;;;;;5055623;28;20044;-51
2023/12/10 05:06:12;;;;;;;10.30;3.40;;;12.50;65.10;;;;;;5070469;28;20049;-52
2023/12/10 05:08:42;;;;;;;11.70;4.22;;;12.50;65.00;;;;;;5066517;28;20064;-50
2023/12/10 05:11:08;;;;;;;13.93;3.42;;;12.50;64.60;;;;;;5057864;28;20081;-50
2023/12/10 05:13:35;;;;;;;13.93;3.65;;;12.50;64.60;;;;;;5055660;28;20465;-48
2023/12/10 05:16:03;;;;;;;8.77;3.10;;;12.50;64.40;;;;;;5051215;28;20103;-49
2023/12/10 05:18:32;;;;;;;10.32;3.58;;;12.60;64.30;;;;;;5049166;28;20080;-49
2023/12/10 05:21:03;;;;;;;13.00;3.30;;;12.60;64.10;;;;;;5040563;28;20068;-49
2023/12/10 05:23:34;;;;;;;9.93;3.15;;;12.60;64.00;;;;;;5048714;28;20056;-49
2023/12/10 05:26:00;;;;;;;12.00;3.42;;;12.60;63.50;;;;;;5041292;28;20045;-52
2023/12/10 05:28:37;;;;;;;14.05;3.17;;;12.60;63.60;;;;;;5051389;28;20045;-47
2023/12/10 05:31:06;;;;;;;11.85;3.13;;;12.60;63.50;;;;;;5052345;28;20051;-49
2023/12/10 05:33:33;;;;;;;9.85;3.50;;;12.70;63.50;;;;;;5041427;28;20500;-49
2023/12/10 05:36:03;;;;;;;9.73;3.03;;;12.70;63.20;;;;;;5043874;28;20119;-48
2023/12/10 05:38:29;;;;;;;11.73;3.22;;;12.60;63.00;;;;;;5051458;28;20049;-49
2023/12/10 05:40:56;;;;;;;13.75;3.70;;;12.60;62.90;;;;;;5051338;28;20557;-48
2023/12/10 05:43:23;;;;;;;12.10;2.80;;;12.70;62.90;;;;;;5044500;28;20037;-46
2023/12/10 05:45:50;;;;;;;8.07;3.35;;;12.70;63.00;;;;;;5048500;28;20056;-47
2023/12/10 05:48:17;;;;;;;11.82;3.50;;;12.70;62.90;;;;;;5051817;28;20033;-48
2023/12/10 05:50:43;;;;;;;10.98;2.60;;;12.70;62.80;;;;;;5042961;28;20095;-47
2023/12/10 05:53:12;;;;;;;8.38;3.88;;;12.70;62.70;;;;;;5045550;28;20052;-47
2023/12/10 05:55:39;;;;;;;11.25;3.65;;;12.90;62.80;;;;;;5026339;28;20042;-47
2023/12/10 05:58:11;;;;;;;11.23;3.30;;;12.70;62.50;;;;;;5051808;28;20056;-48
2023/12/10 06:00:37;;;;;;;9.73;3.85;;;12.80;62.70;;;;;;5052153;28;20483;-48
2023/12/10 06:03:07;;;;;;;12.68;3.50;;;12.70;62.50;;;;;;5049125;28;20068;-50
2023/12/10 06:05:37;;;;;;;14.35;4.32;;;12.70;62.40;;;;;;5041843;28;20039;-48
2023/12/10 06:08:04;;;;;;;9.43;3.47;;;12.70;62.40;;;;;;5052549;28;20127;-53
2023/12/10 06:10:31;;;;;;;11.63;3.45;;;12.80;62.50;;;;;;5039256;28;20037;-49
2023/12/10 06:12:58;;;;;;;10.15;2.72;;;12.80;62.40;;;;;;5049970;28;20416;-51
2023/12/10 06:15:27;;;;;;;10.45;3.00;;;12.70;62.30;;;;;;5051798;28;20515;-47
2023/12/10 06:17:56;;;;;;;10.75;3.42;;;12.80;62.30;;;;;;5049970;28;20060;-47
2023/12/10 06:20:24;;;;;;;10.20;3.65;;;12.80;62.50;;;;;;5045148;28;20040;-50
2023/12/10 06:22:50;;;;;;;12.43;3.95;;;12.70;62.30;;;;;;5051136;28;20408;-55
2023/12/10 06:25:17;;;;;;;11.88;3.28;;;12.70;62.20;;;;;;5043850;28;20044;-50
2023/12/10 06:27:44;;;;;;;8.88;3.25;;;12.70;62.10;;;;;;5047685;28;20491;-49
2023/12/10 06:30:16;;;;;;;12.73;3.33;;;12.80;62.10;;;;;;5052804;28;20049;-49
2023/12/10 06:32:43;;;;;;;;;;;12.70;61.80;;;;;;5047624;28;20124;-51
2023/12/10 06:35:12;;;;;;;9.55;3.65;;;12.80;62.60;;;;;;5048167;28;20434;-50
2023/12/10 06:37:41;;;;;;;10.88;3.13;;;12.70;62.20;;;;;;5051893;28;20079;-47
2023/12/10 06:40:09;;;;;;;15.15;3.22;;;12.80;62.20;;;;;;5050693;28;20068;-50
2023/12/10 06:42:36;;;;;;;12.50;3.95;;;12.80;62.20;;;;;;5050545;28;20107;-51
2023/12/10 06:45:03;;;;;;;10.60;3.50;;;12.80;62.20;;;;;;5052863;28;20033;-48
2023/12/10 06:47:34;;;;;;;14.17;3.33;;;12.80;62.10;;;;;;5052216;28;20494;-49
2023/12/10 06:50:01;;;;;;;15.48;3.75;;;12.80;62.30;;;;;;5042166;28;20296;-48
2023/12/10 06:52:30;;;;;;;13.18;3.63;;;12.80;62.30;;;;;;5052047;28;20099;-49
2023/12/10 06:54:58;;;;;;;10.68;3.50;;;12.80;62.20;;;;;;5042618;28;20148;-47
2023/12/10 06:57:27;;;;;;;19.60;3.60;;;12.80;62.30;;;;;;5050506;28;20061;-47
2023/12/10 06:59:54;;;;;;;13.05;3.88;;;12.80;62.30;;;;;;5053382;28;20083;-47
2023/12/10 07:02:21;;;;;;;11.18;3.25;;;12.80;62.40;;;;;;5049056;28;20044;-50
2023/12/10 07:04:52;;;;;;;14.07;2.75;;;12.80;62.30;;;;;;5045234;28;20037;-49
2023/12/10 07:07:19;;;;;;;13.27;3.85;;;12.80;62.20;;;;;;5053305;28;20123;-51
2023/12/10 07:09:46;;;;;;;9.00;3.28;;;12.80;62.20;;;;;;5051762;28;20471;-47
2023/12/10 07:12:15;;;;;;;12.95;3.47;;;12.80;62.10;;;;;;5044998;28;20033;-49
2023/12/10 07:14:43;;;;;;;8.90;2.92;;;12.80;62.20;;;;;;5051122;28;20120;-52
2023/12/10 07:17:14;;;;;;;10.57;3.35;;;12.70;62.20;;;;;;5053926;28;20451;-50
2023/12/10 07:19:41;;;;;;;8.98;3.35;;;12.80;62.20;;;;;;5049324;28;20064;-50
2023/12/10 07:22:08;;;;;;;10.65;2.55;;;12.80;62.30;;;;;;5047900;28;20060;-48
2023/12/10 07:24:37;;;;;;;12.63;3.33;;;12.80;62.40;;;;;;5046877;28;20038;-51
2023/12/10 07:27:05;;;;;;;9.57;3.50;;;12.80;62.20;;;;;;5048670;28;20120;-50
2023/12/10 07:29:31;;;;;;;11.50;2.75;;;12.80;62.40;;;;;;5053238;28;20041;-50
2023/12/10 07:32:00;;;;;;;11.95;4.03;;;12.80;62.40;;;;;;5053476;28;20052;-48
2023/12/10 07:34:29;;;;;;;9.35;2.95;;;12.80;62.40;;;;;;5032100;28;20052;-48
2023/12/10 07:36:56;;;;;;;14.82;4.88;;;12.80;62.40;;;;;;5054866;28;20040;-49
2023/12/10 07:39:23;;;;;;;15.52;3.28;;;12.80;62.20;;;;;;5056690;28;20517;-53
2023/12/10 07:41:52;;;;;;;9.65;3.00;;;12.80;62.30;;;;;;5048333;28;20052;-50
2023/12/10 07:44:19;;;;;;;11.48;4.00;;;12.80;62.30;;;;;;5053173;28;20460;-49
2023/12/10 07:46:50;;;;;;;16.80;4.40;;;12.80;62.40;;;;;;5056028;28;20033;-49
2023/12/10 07:49:17;;;;;;;14.38;4.32;;;12.80;62.20;;;;;;5054299;28;20064;-48
2023/12/10 07:51:46;;;;;;;13.48;2.88;;;12.80;62.40;;;;;;5048101;28;20135;-48
2023/12/10 07:54:13;;;;;;;10.40;3.38;;;12.80;62.50;;;;;;5051111;28;20040;-48
2023/12/10 07:56:40;;;;;;;13.40;3.85;;;12.70;62.50;;;;;;5043971;28;20057;-48
2023/12/10 07:59:07;;;;;;;17.40;3.63;;;12.80;62.60;;;;;;5045253;28;20041;-48
2023/12/10 08:01:36;;;;;;;10.18;3.65;;;12.80;62.60;;;;;;5050364;28;20052;-48
2023/12/10 08:04:02;;;;;;;15.18;3.67;;;12.70;62.50;;;;;;5055236;28;20402;-48
2023/12/10 08:06:30;;;;;;;14.48;4.72;;;12.80;62.70;;;;;;5049259;28;20115;-47
2023/12/10 08:08:57;;;;;;;14.30;3.40;;;12.80;62.70;;;;;;5046013;28;20468;-51
2023/12/10 08:11:24;;;;;;;12.02;4.07;;;12.70;62.70;;;;;;5055681;28;20692;-48
2023/12/10 08:13:51;;;;;;;10.13;3.63;;;12.70;62.70;;;;;;5053182;28;20045;-48
2023/12/10 08:16:18;;;;;;;8.93;3.50;;;12.70;62.80;;;;;;5054793;28;20504;-52
2023/12/10 08:18:45;;;;;;;11.63;3.05;;;12.70;62.80;;;;;;5048433;28;20106;-50
2023/12/10 08:21:15;;;;;;;10.55;4.07;;;12.70;62.90;;;;;;5056127;28;20391;-51
2023/12/10 08:23:44;;;;;;;19.45;4.03;;;12.70;62.90;;;;;;5050048;28;20069;-50
2023/12/10 08:26:11;;;;;;;13.07;3.92;;;12.70;63.00;;;;;;5048026;28;20056;-51
2023/12/10 08:28:38;;;;;;;10.88;3.63;;;12.70;63.00;;;;;;5057953;28;20047;-52
2023/12/10 08:31:06;;;;;;;12.38;3.63;;;12.70;63.00;;;;;;5056433;28;20635;-51
2023/12/10 08:33:33;;;;;;;13.82;3.58;;;12.70;63.10;;;;;;5031171;28;20045;-51
2023/12/10 08:36:00;;;;;;;14.77;4.57;;;12.70;63.10;;;;;;5059528;28;20503;-48
2023/12/10 08:38:27;;;;;;;17.10;4.60;;;12.70;63.00;;;;;;5058075;28;20127;-52
2023/12/10 08:40:53;;;;;;;11.48;3.38;;;12.70;63.00;;;;;;5055687;28;20486;-49
2023/12/10 08:43:20;;;;;;;10.65;3.28;;;12.70;63.10;;;;;;5055407;28;20052;-49
2023/12/10 08:45:47;;;;;;;10.15;3.30;;;12.70;63.30;;;;;;5057614;28;20048;-50
2023/12/10 08:48:17;;;;;;;13.27;3.40;;;12.70;63.30;;;;;;5055754;28;20044;-52
2023/12/10 08:50:44;;;;;;;14.45;3.55;;;12.70;63.40;;;;;;5050041;28;20090;-49
2023/12/10 08:53:11;;;;;;;16.20;3.60;;;12.70;63.20;;;;;;5058815;28;20068;-48
2023/12/10 08:55:38;;;;;;;15.73;3.47;;;12.70;63.40;;;;;;5042785;28;20530;-48
2023/12/10 08:58:05;;;;;;;14.05;3.70;;;12.70;63.40;;;;;;5058020;28;20094;-52
2023/12/10 09:00:31;;;;;;;14.82;3.60;;;12.70;63.40;;;;;;5058754;28;20048;-53
2023/12/10 09:03:00;;;;;;;13.50;3.75;;;12.70;63.40;;;;;;5052334;28;20500;-51
2023/12/10 09:05:27;;;;;;;9.95;2.78;;;12.70;63.50;;;;;;5055859;28;20040;-51
2023/12/10 09:07:54;;;;;;;13.60;3.63;;;12.70;63.60;;;;;;5039643;28;20496;-51
2023/12/10 09:10:21;;;;;;;16.08;4.35;;;12.70;63.60;;;;;;5054472;28;20120;-52
2023/12/10 09:12:48;;;;;;;8.20;3.30;;;12.70;63.60;;;;;;5050482;28;20495;-48
2023/12/10 09:15:15;;;;;;;10.98;3.08;;;12.80;63.80;;;;;;5061361;28;20036;-52
2023/12/10 09:17:42;;;;;;;12.27;3.60;;;12.80;63.80;;;;;;5057747;28;20079;-52
2023/12/10 09:20:09;;;;;;;14.25;3.10;;;12.70;63.80;;;;;;5052104;28;20071;-53
2023/12/10 09:22:36;;;;;;;13.45;3.35;;;12.80;63.80;;;;;;5051264;28;20036;-52
2023/12/10 09:25:06;;;;;;;17.67;4.05;;;12.80;63.90;;;;;;5050136;28;20033;-52
2023/12/10 09:27:33;;;;;;;12.57;3.70;;;12.80;63.90;;;;;;5053303;28;20087;-50
2023/12/10 09:30:00;;;;;;;13.02;3.55;;;12.90;63.90;;;;;;5059264;28;20495;-52
2023/12/10 09:32:27;;;;;;;14.80;3.83;;;12.80;63.90;;;;;;5059451;28;20052;-52
2023/12/10 09:34:55;;;;;;;10.18;3.17;;;12.90;64.10;;;;;;5051288;28;20503;-52
2023/12/10 09:37:22;;;;;;;15.88;3.60;;;12.90;64.20;;;;;;5058147;28;20044;-49
2023/12/10 09:39:49;;;;;;;8.30;3.10;;;12.90;64.40;;;;;;5058569;28;20045;-52
2023/12/10 09:42:16;;;;;;;9.15;3.22;;;13.00;64.40;;;;;;5055046;28;20045;-47
2023/12/10 09:44:43;;;;;;;12.65;4.15;;;13.00;64.50;;;;;;5051176;28;20075;-50
2023/12/10 09:47:12;;;;;;;13.88;3.92;;;13.00;64.40;;;;;;5060460;28;20435;-50
2023/12/10 09:49:41;;;;;;;14.00;3.55;;;13.10;64.50;;;;;;5058691;28;20451;-49
2023/12/10 09:52:09;;;;;;;11.43;3.85;;;13.10;64.60;;;;;;5051322;28;20140;-52
2023/12/10 09:54:40;;;;;;;10.77;3.42;;;13.10;64.50;;;;;;5052541;28;20041;-47
2023/12/10 09:57:08;;;;;;;12.45;3.75;;;13.20;64.50;;;;;;5059423;28;20116;-48
2023/12/10 09:59:36;;;;;;;16.77;3.78;;;13.20;64.60;;;;;;5055695;28;20459;-52
2023/12/10 10:02:05;;;;;;;12.75;3.88;;;13.20;64.40;;;;;;5050796;28;20064;-46
2023/12/10 10:04:32;;;;;;;11.23;4.28;;;13.30;64.50;;;;;;5056466;28;20402;-47
2023/12/10 10:06:59;;;;;;;20.15;4.78;;;13.30;64.50;;;;;;5055695;28;20064;-51
2023/12/10 10:09:26;;;;;;;10.63;3.67;;;13.30;64.50;;;;;;5055383;28;20086;-49
2023/12/10 10:12:03;;;;;;;15.93;4.70;;;13.30;64.40;;;;;;5054763;28;20083;-50
2023/12/10 10:14:30;;;;;;;14.40;3.88;;;13.30;64.40;;;;;;5058546;28;20503;-51
2023/12/10 10:16:57;;;;;;;8.73;3.88;;;13.30;64.50;;;;;;5059193;28;20095;-51
2023/12/10 10:19:28;;;;;;;13.18;4.07;;;13.30;65.30;;;;;;5054064;28;20041;-48
2023/12/10 10:21:55;;;;;;;15.90;4.10;;;13.30;64.70;;;;;;5054660;28;20040;-48
2023/12/10 10:24:22;;;;;;;9.95;3.85;;;13.30;64.80;;;;;;5056263;28;20063;-47
2023/12/10 10:26:49;;;;;;;10.82;3.88;;;13.40;64.90;;;;;;5058208;28;20468;-48
2023/12/10 10:29:15;;;;;;;8.45;3.33;;;13.40;65.00;;;;;;5061515;28;20040;-50
2023/12/10 10:31:46;;;;;;;14.43;4.10;;;13.40;65.20;;;;;;5052460;28;20128;-50
2023/12/10 10:34:14;;;;;;;13.05;3.80;;;13.40;65.20;;;;;;5053486;28;20441;-47
2023/12/10 10:36:40;;;;;;;15.18;3.83;;;13.50;65.20;;;;;;5059159;28;20059;-49
2023/12/10 10:39:08;;;;;;;11.93;3.60;;;13.50;65.00;;;;;;5060267;28;20041;-47
2023/12/10 10:41:35;;;;;;;18.92;4.68;;;13.50;65.00;;;;;;5048864;28;20521;-50
2023/12/10 10:44:02;;;;;;;14.02;3.95;;;13.50;65.00;;;;;;5060249;28;20041;-50
2023/12/10 10:46:29;;;;;;;15.45;4.72;;;13.60;64.90;;;;;;5061273;28;20040;-47
2023/12/10 10:48:57;;;;;;;15.63;5.28;;;13.60;64.90;;;;;;5059279;28;20033;-49
2023/12/10 10:51:27;;;;;;;14.75;3.88;;;13.70;64.90;;;;;;5057039;28;20060;-47
2023/12/10 10:53:58;;;;;;;12.25;4.68;;;13.70;64.80;;;;;;5052426;28;20099;-47
2023/12/10 10:56:26;;;;;;;13.88;4.30;;;13.70;64.60;;;;;;5056182;28;20128;-47
2023/12/10 10:58:52;;;;;;;12.43;3.97;;;13.70;64.60;;;;;;5052472;28;20064;-48
2023/12/10 11:01:40;;;;;;;14.27;4.60;;;13.70;64.60;;;;;;5053124;28;20395;-48
2023/12/10 11:04:12;;;;;;;15.38;5.72;;;13.70;64.30;;;;;;5057596;28;20180;-47
2023/12/10 11:06:40;;;;;;;13.98;4.63;;;13.80;64.50;;;;;;5052457;28;20116;-52
2023/12/10 11:09:09;;;;;;;15.73;4.70;;;13.80;64.80;;;;;;5056750;28;20129;-51
2023/12/10 11:11:39;;;;;;;13.65;4.55;;;13.80;64.70;;;;;;5052983;28;20044;-49
2023/12/10 11:14:22;;;;;;;17.02;3.78;;;13.80;64.60;;;;;;5049724;28;20442;-49
2023/12/10 11:16:53;;;;;;;13.93;4.22;;;13.90;64.50;;;;;;5052040;28;20098;-45
2023/12/10 11:19:21;;;;;;;14.13;4.70;;;14.10;64.80;;;;;;5056297;28;20048;-52
2023/12/10 11:21:52;;;;;;;19.58;4.47;;;14.00;64.50;;;;;;5059654;28;20041;-47
2023/12/10 11:24:19;;;;;;;16.35;4.55;;;14.00;64.10;;;;;;5037637;28;20056;-51
2023/12/10 11:26:46;;;;;;;14.93;5.18;;;14.00;64.10;;;;;;5057162;28;20064;-48
2023/12/10 11:29:13;;;;;;;10.80;3.97;;;14.00;63.80;;;;;;5047484;28;20060;-51
2023/12/10 11:31:44;;;;;;;14.93;4.00;;;14.00;63.80;;;;;;5040542;28;20098;-49
2023/12/10 11:34:11;;;;;;;18.05;4.55;;;14.00;63.80;;;;;;5047436;28;20056;-50
2023/12/10 11:36:38;;;;;;;9.75;3.65;;;13.90;63.70;;;;;;5061387;28;20109;-50
2023/12/10 11:39:13;;;;;;;12.55;3.90;;;13.90;63.90;;;;;;5060648;28;20113;-51
2023/12/10 11:41:42;;;;;;;11.18;3.72;;;13.90;63.70;;;;;;5052406;28;20052;-52
2023/12/10 11:44:27;;;;;;;17.45;4.88;;;13.90;64.00;;;;;;5051005;28;20465;-49
2023/12/10 11:46:54;;;;;;;14.20;4.70;;;13.90;64.20;;;;;;5043294;28;20037;-47
2023/12/10 11:49:24;;;;;;;12.88;4.88;;;13.80;64.30;;;;;;5055806;28;20453;-51
2023/12/10 11:51:53;;;;;;;16.35;4.85;;;13.80;64.30;;;;;;5039292;28;20052;-49
2023/12/10 11:54:21;;;;;;;14.85;4.75;;;13.80;64.40;;;;;;5042742;28;20103;-47
2023/12/10 11:56:48;;;;;;;18.17;6.72;;;13.80;64.50;;;;;;5051985;28;20045;-49
2023/12/10 11:59:15;;;;;;;15.80;5.68;;;13.80;64.50;;;;;;5057976;28;20051;-48
2023/12/10 12:01:45;;;;;;;17.45;5.60;;;13.80;64.70;;;;;;5061508;28;20052;-51
2023/12/10 12:04:12;;;;;;;17.75;5.50;;;13.90;64.70;;;;;;5055633;28;20048;-51
2023/12/10 12:06:41;;;;;;;16.67;5.03;;;13.80;64.90;;;;;;5060679;28;20051;-51
2023/12/10 12:09:14;;;;;;;15.50;4.90;;;13.80;65.10;;;;;;5057394;28;20039;-49
2023/12/10 12:11:41;;;;;;;14.05;4.75;;;13.90;65.10;;;;;;5054522;28;20105;-52
2023/12/10 12:14:18;;;;;;;17.92;5.30;;;13.90;65.30;;;;;;5057859;28;20075;-49
2023/12/10 12:16:48;;;;;;;20.48;4.88;;;14.00;65.20;;;;;;5047175;28;20126;-50
2023/12/10 12:19:25;;;;;;;13.18;4.57;;;14.00;65.20;;;;;;5041556;28;20053;-51
2023/12/10 12:21:53;;;;;;;17.73;5.43;;;14.10;65.30;;;;;;5054170;28;20037;-50
2023/12/10 12:24:22;;;;;;;19.70;4.90;;;14.10;65.30;;;;;;5059158;28;20049;-50
2023/12/10 12:26:50;;;;;;;18.58;4.95;;;14.10;65.20;;;;;;5060715;28;20072;-48
2023/12/10 12:29:17;;;;;;;16.08;5.20;;;14.10;65.10;;;;;;5054784;28;20563;-52
2023/12/10 12:31:43;;;;;;;16.60;5.10;;;14.10;65.10;;;;;;5065560;28;20117;-49
2023/12/10 12:34:30;;;;;;;13.98;4.93;;;14.10;65.10;;;;;;5047616;28;20052;-49
2023/12/10 12:36:58;;;;;;;17.48;5.15;;;14.10;65.10;;;;;;5058652;28;20530;-49
2023/12/10 12:39:24;;;;;;;13.75;5.32;;;14.10;65.10;;;;;;5059051;28;20045;-49
2023/12/10 12:41:52;;;;;;;17.13;5.50;;;14.10;65.20;;;;;;5060457;28;20495;-49